Main page
METAR-TAF:

METAR-TAF

Airports :

Carlisle Lake District Airport

Carlisle, England

latitude: 54-56-15N, longitude: 002-48-33W, elevation: 57 m

Current weather observation

The report was made 8 hours and 13 minutes ago, at 16:50 UTC
Wind 16 kt from the West with gusts up to 27 kt
Temperature 5°C
Humidity 87%
Pressure 1001 hPa
Visibility 10 km or more
Broken clouds at a height of 2500 ft

METAR: EGNC 171650Z 26016G27KT 9999 BKN025 05/03 Q1001

Time: 01:03 (01:03 UTC)

Forecast

The report was made 11 hours and 7 minutes ago, at 13:56 UTC
Forecast valid from 17 at 15 UTC to 17 at 18 UTC
Wind 22 kt from the West with gusts up to 35 kt
Visibility 10 km or more
Scattered clouds at a height of 2500 ft
Probability 30% :
Temporary
from 17 at 15 UTC to 17 at 18 UTC
Visibility: 6000 m
Broken clouds at a height of 1400 ft
rain showers

TAF: EGNC 171356Z 1715/1718 26022G35KT 9999 SCT025 PROB30 TEMPO 1715/1718 6000 SHRA BKN014

Weather observations and forecasts of more than 4000 airports (METAR and TAF reports).

The available stations are represented by yellow and red dots on the map.

Hover mouse over dot to see the name of the station.

Then click to see weather observations and forecasts.

To change the map : click on the green buttons with a black cross to zoom in, on the green button with a dash to zoom out, or on the green arrows for adjacent maps.


METAR-TAF: